Zahedan, Iran
Current Conditions -  °F | °C
As of 3:00 AM on Wednesday 22 Oct 2014 (Local Time) from OIZH Reporting Station
Clear Clear  
Wind Chill: 68°   Ceiling: Unl
Heat Index: 68°   Visibility: 6mi
Dew Point: 34°   Wind: 12mph
Humidity: 28%   Direction: 230°SW
Pressure: 30.09"   Gusts: NA
Location:  29.5°N, 60.83°E
Report Text: OIZH 220000Z 23010KT CAVOK 20/01 Q1019 A3010
Loading
Personal Weather Stations






























Interactive Weather Map
Tropical Storm Tracking
New forecast layout! Learn more

10-Day Weather Forecast

Advertisements
Track Severe Weather on mobile